Time;durP1;ratioP1;P1;durP2;ratioP2;P2;SDS_P1;SDS_P2;PMS_P1;PMS_P2;Temp;Humidity;BMP_temperature;BMP_pressure;BME280_temperature;BME280_humidity;BME280_pressure;Samples;Min_cycle;Max_cycle;Signal;HPM_P1;HPM_P2
2023/06/10 00:01:49;;;;;;;3.60;3.20;;;20.10;48.20;;;;;;4988296;28;20042;-93
2023/06/10 00:04:19;;;;;;;3.45;3.15;;;20.10;48.20;;;;;;4989947;28;20152;-92
2023/06/10 00:06:45;;;;;;;4.28;3.13;;;20.00;48.40;;;;;;4991257;28;20038;-93
2023/06/10 00:09:10;;;;;;;5.30;3.30;;;20.00;48.40;;;;;;4993805;28;20030;-93
2023/06/10 00:11:37;;;;;;;4.03;3.22;;;19.90;48.50;;;;;;4992489;28;20026;-93
2023/06/10 00:14:03;;;;;;;6.03;3.55;;;19.90;48.80;;;;;;4996741;28;20034;-93
2023/06/10 00:16:29;;;;;;;4.22;3.15;;;19.80;48.90;;;;;;4979337;28;20034;-93
2023/06/10 00:19:00;;;;;;;4.40;3.53;;;19.70;49.00;;;;;;4988606;28;20066;-94
2023/06/10 00:21:30;;;;;;;5.57;3.33;;;19.60;49.20;;;;;;5001396;28;20022;-94
2023/06/10 00:23:56;;;;;;;4.07;3.58;;;19.60;49.40;;;;;;4991763;28;20030;-93
2023/06/10 00:26:23;;;;;;;4.03;3.40;;;19.50;49.20;;;;;;4983149;28;20030;-94
2023/06/10 00:28:49;;;;;;;5.32;3.70;;;19.40;49.50;;;;;;4997967;28;20102;-92
2023/06/10 00:31:16;;;;;;;4.80;3.63;;;19.30;49.70;;;;;;4991724;28;20034;-93
2023/06/10 00:33:41;;;;;;;5.40;3.65;;;19.30;49.70;;;;;;4994388;28;20047;-92
2023/06/10 00:36:07;;;;;;;5.47;3.33;;;19.20;49.90;;;;;;4995148;28;20041;-93
2023/06/10 00:38:34;;;;;;;4.13;3.40;;;19.10;50.10;;;;;;4974150;28;20494;-93
2023/06/10 00:41:00;;;;;;;4.55;3.25;;;19.10;50.30;;;;;;4986430;28;20506;-92
2023/06/10 00:43:26;;;;;;;4.65;3.85;;;19.00;50.30;;;;;;4993397;28;20112;-92
2023/06/10 00:45:52;;;;;;;6.78;3.42;;;19.00;50.50;;;;;;4998814;28;20603;-92
2023/06/10 00:48:18;;;;;;;5.80;3.65;;;19.00;50.70;;;;;;4997320;28;20481;-93
2023/06/10 00:50:46;;;;;;;6.35;3.40;;;18.90;50.80;;;;;;5003587;28;20030;-92
2023/06/10 00:53:13;;;;;;;6.25;3.80;;;18.80;51.00;;;;;;5000980;28;20036;-92
2023/06/10 00:55:41;;;;;;;5.47;4.00;;;18.80;51.20;;;;;;4990269;28;20614;-92
2023/06/10 00:58:07;;;;;;;4.47;3.53;;;18.80;51.40;;;;;;4990893;28;20405;-92
2023/06/10 01:00:33;;;;;;;4.47;3.75;;;18.80;51.40;;;;;;4994622;28;20030;-92
2023/06/10 01:02:59;;;;;;;7.70;4.00;;;18.70;51.50;;;;;;4995246;28;20030;-93
2023/06/10 01:05:25;;;;;;;4.78;3.65;;;18.70;51.70;;;;;;5000461;28;21120;-92
2023/06/10 01:08:25;;;;;;;4.45;3.50;;;18.70;51.80;;;;;;4996139;28;20029;-92
2023/06/10 01:10:55;;;;;;;4.05;3.33;;;18.60;52.90;;;;;;4993057;28;20470;-94
2023/06/10 01:13:28;;;;;;;5.07;3.38;;;18.60;52.10;;;;;;4992034;28;20033;-92
2023/06/10 01:15:56;;;;;;;5.75;3.80;;;18.60;52.30;;;;;;4995214;28;20057;-92
2023/06/10 01:18:22;;;;;;;5.47;3.90;;;18.50;52.20;;;;;;4993539;28;20060;-92
2023/06/10 01:20:48;;;;;;;4.85;3.75;;;18.50;52.30;;;;;;4997679;28;20146;-92
2023/06/10 01:23:15;;;;;;;6.30;3.38;;;18.50;52.40;;;;;;4989339;28;20125;-93
2023/06/10 01:25:59;;;;;;;5.20;3.95;;;18.40;52.50;;;;;;4996580;28;20112;-92
2023/06/10 01:28:39;;;;;;;8.07;3.80;;;18.30;53.70;;;;;;4980747;28;20080;-92
2023/06/10 01:31:08;;;;;;;4.03;3.45;;;18.30;53.50;;;;;;4993158;28;20037;-92
2023/06/10 01:33:37;;;;;;;4.70;3.70;;;18.30;53.00;;;;;;5001685;28;20152;-95
2023/06/10 01:36:03;;;;;;;4.30;3.88;;;18.20;53.00;;;;;;4994518;28;20081;-92
2023/06/10 01:38:42;;;;;;;7.47;4.22;;;18.20;53.00;;;;;;4999141;28;20053;-92
2023/06/10 01:41:13;;;;;;;4.68;3.83;;;18.20;54.00;;;;;;4984320;28;20072;-94
2023/06/10 01:43:39;;;;;;;4.15;3.67;;;18.20;53.80;;;;;;4997755;28;20038;-92
2023/06/10 01:46:06;;;;;;;4.55;4.00;;;18.10;53.40;;;;;;4995083;28;20030;-92
2023/06/10 01:48:32;;;;;;;5.85;3.92;;;18.10;53.70;;;;;;4993959;28;20050;-93
2023/06/10 01:50:58;;;;;;;5.65;4.10;;;18.10;53.80;;;;;;4998324;28;20028;-93
2023/06/10 01:53:24;;;;;;;4.53;3.63;;;18.10;53.70;;;;;;4988770;28;20087;-92
2023/06/10 01:55:50;;;;;;;8.02;4.00;;;18.10;53.70;;;;;;4993079;28;20030;-93
2023/06/10 01:58:16;;;;;;;4.78;3.78;;;18.00;53.80;;;;;;4988275;28;20041;-92
2023/06/10 02:00:42;;;;;;;4.47;3.67;;;18.00;53.80;;;;;;4992825;28;20030;-92
2023/06/10 02:03:08;;;;;;;4.32;3.75;;;18.00;53.90;;;;;;4989175;28;20057;-91
2023/06/10 02:05:34;;;;;;;13.68;3.53;;;18.00;54.10;;;;;;5001866;28;20056;-95
2023/06/10 02:08:00;;;;;;;7.63;3.47;;;18.00;54.10;;;;;;4983313;28;20038;-93
2023/06/10 02:10:26;;;;;;;4.88;3.97;;;17.90;54.10;;;;;;5016358;28;20029;-92
2023/06/10 02:12:52;;;;;;;5.85;3.50;;;17.90;54.10;;;;;;4987948;28;20021;-93
2023/06/10 02:15:18;;;;;;;4.40;3.60;;;17.90;54.20;;;;;;4989071;28;20025;-92
2023/06/10 02:17:44;;;;;;;7.95;3.55;;;17.90;54.40;;;;;;4982940;28;20104;-91
2023/06/10 02:20:11;;;;;;;5.35;3.83;;;17.80;54.50;;;;;;4983217;28;20029;-92
2023/06/10 02:22:37;;;;;;;4.93;3.95;;;17.80;54.50;;;;;;4987308;28;20121;-92
2023/06/10 02:25:05;;;;;;;5.43;4.00;;;17.80;54.70;;;;;;4990294;28;20078;-92
2023/06/10 02:27:31;;;;;;;6.05;3.55;;;17.70;54.90;;;;;;4986247;28;20038;-93
2023/06/10 02:29:57;;;;;;;4.63;3.80;;;17.80;55.00;;;;;;4982168;28;20077;-91
2023/06/10 02:32:23;;;;;;;3.92;3.50;;;17.70;55.10;;;;;;4978797;28;20030;-96
2023/06/10 02:34:49;;;;;;;4.15;3.58;;;17.70;55.10;;;;;;4989464;28;20029;-92
2023/06/10 02:37:16;;;;;;;8.32;3.65;;;17.70;55.10;;;;;;4993513;28;20049;-92
2023/06/10 02:39:41;;;;;;;3.92;3.50;;;17.70;55.40;;;;;;4992845;28;20247;-92
2023/06/10 02:42:08;;;;;;;7.07;3.80;;;17.70;55.30;;;;;;4999387;28;20056;-92
2023/06/10 02:44:33;;;;;;;4.30;3.65;;;17.70;55.50;;;;;;4999925;28;20030;-91
2023/06/10 02:46:59;;;;;;;4.07;3.33;;;17.60;55.50;;;;;;4992624;28;20443;-92
2023/06/10 02:49:27;;;;;;;6.15;3.70;;;17.60;55.60;;;;;;4990324;28;20036;-93
2023/06/10 02:51:53;;;;;;;4.47;3.75;;;17.60;55.60;;;;;;4990527;28;20033;-92
2023/06/10 02:54:23;;;;;;;5.65;4.05;;;17.60;55.80;;;;;;4995975;28;20052;-91
2023/06/10 02:56:49;;;;;;;4.40;3.50;;;17.60;56.20;;;;;;4991814;28;20196;-92
2023/06/10 02:59:15;;;;;;;5.18;3.55;;;17.50;55.70;;;;;;4998236;28;20075;-91
2023/06/10 03:01:41;;;;;;;4.97;3.80;;;17.50;55.80;;;;;;4994604;28;20060;-92
2023/06/10 03:04:07;;;;;;;4.63;3.53;;;17.50;55.90;;;;;;4994121;28;20018;-92
2023/06/10 03:06:38;;;;;;;5.28;3.67;;;17.50;56.00;;;;;;5001164;28;20436;-92
2023/06/10 03:09:04;;;;;;;4.13;3.72;;;17.40;56.00;;;;;;4991617;28;20033;-91
2023/06/10 03:11:30;;;;;;;4.50;3.47;;;17.50;56.00;;;;;;4998393;28;20109;-92
2023/06/10 03:13:57;;;;;;;4.70;3.72;;;17.40;56.00;;;;;;4994144;28;20029;-91
2023/06/10 03:16:25;;;;;;;3.97;3.40;;;17.40;56.50;;;;;;4989657;28;20056;-92
2023/06/10 03:18:51;;;;;;;4.78;3.78;;;17.40;56.40;;;;;;4990625;28;20040;-92
2023/06/10 03:21:17;;;;;;;5.95;3.47;;;17.40;56.40;;;;;;4994737;28;20052;-91
2023/06/10 03:23:42;;;;;;;5.03;3.67;;;17.40;56.40;;;;;;4994752;28;20065;-91
2023/06/10 03:26:09;;;;;;;4.50;4.00;;;17.40;56.50;;;;;;5009538;28;20030;-91
2023/06/10 03:28:35;;;;;;;3.83;3.42;;;17.30;56.50;;;;;;4994001;28;20033;-92
2023/06/10 03:31:01;;;;;;;5.40;3.53;;;17.30;56.60;;;;;;4994021;28;20403;-92
2023/06/10 03:33:27;;;;;;;4.88;3.60;;;17.30;56.70;;;;;;4984927;28;20054;-94
2023/06/10 03:35:53;;;;;;;7.57;3.42;;;17.30;56.90;;;;;;4990835;28;20132;-91
2023/06/10 03:38:19;;;;;;;7.47;3.88;;;17.30;57.00;;;;;;4990439;28;20054;-92
2023/06/10 03:40:44;;;;;;;3.85;3.47;;;17.30;57.00;;;;;;4999715;28;20037;-91
2023/06/10 03:43:10;;;;;;;5.70;3.45;;;17.30;57.00;;;;;;4997989;28;20060;-91
2023/06/10 03:45:36;;;;;;;5.10;3.97;;;17.30;57.10;;;;;;4994703;28;20113;-91
2023/06/10 03:48:09;;;;;;;4.45;3.83;;;17.20;57.20;;;;;;4996489;28;20119;-93
2023/06/10 03:50:36;;;;;;;4.30;3.90;;;17.20;57.60;;;;;;4993331;28;20036;-92
2023/06/10 03:53:02;;;;;;;4.63;3.80;;;17.20;57.30;;;;;;4991477;28;20053;-90
2023/06/10 03:55:28;;;;;;;4.85;4.07;;;17.20;57.40;;;;;;4992388;28;20547;-91
2023/06/10 03:57:53;;;;;;;7.63;4.35;;;17.20;57.60;;;;;;4978388;28;20041;-91
2023/06/10 04:00:21;;;;;;;6.00;4.07;;;17.20;57.70;;;;;;4985865;28;20108;-92
2023/06/10 04:02:49;;;;;;;4.45;3.95;;;17.20;57.80;;;;;;4990897;28;20033;-92
2023/06/10 04:05:21;;;;;;;5.28;3.75;;;17.30;58.00;;;;;;4981667;28;20023;-91
2023/06/10 04:07:48;;;;;;;6.35;4.30;;;17.30;58.30;;;;;;4987662;28;20050;-92
2023/06/10 04:10:14;;;;;;;6.45;4.20;;;17.30;57.90;;;;;;4998113;28;20030;-91
2023/06/10 04:12:40;;;;;;;4.53;4.10;;;17.40;58.00;;;;;;4991568;28;20038;-92
2023/06/10 04:15:06;;;;;;;4.90;3.97;;;17.40;58.00;;;;;;4988758;28;20482;-92
2023/06/10 04:17:32;;;;;;;6.30;4.28;;;17.50;58.10;;;;;;4986625;28;20039;-92
2023/06/10 04:19:58;;;;;;;4.75;3.97;;;17.50;58.00;;;;;;4989518;28;20034;-92
2023/06/10 04:22:24;;;;;;;5.10;4.10;;;17.60;58.00;;;;;;4996929;28;20093;-93
2023/06/10 04:24:50;;;;;;;9.68;4.30;;;17.60;57.90;;;;;;4991758;28;20089;-91
2023/06/10 04:27:15;;;;;;;4.70;3.88;;;17.70;57.90;;;;;;4996990;28;20030;-91
2023/06/10 04:29:41;;;;;;;4.45;3.75;;;17.70;57.80;;;;;;4994866;28;20037;-91
2023/06/10 04:32:07;;;;;;;5.72;4.00;;;17.80;57.80;;;;;;4989145;28;20742;-91
2023/06/10 04:34:34;;;;;;;5.82;3.65;;;17.90;57.80;;;;;;4992254;28;20033;-91
2023/06/10 04:37:00;;;;;;;6.18;4.15;;;17.90;58.00;;;;;;4991023;28;20058;-93
2023/06/10 04:39:26;;;;;;;4.43;4.03;;;18.00;57.70;;;;;;4994006;28;20026;-92
2023/06/10 04:41:51;;;;;;;5.85;3.80;;;18.10;57.80;;;;;;5004089;28;20064;-91
2023/06/10 04:44:18;;;;;;;4.20;3.47;;;18.10;57.70;;;;;;4998894;28;20060;-91
2023/06/10 04:46:45;;;;;;;8.75;4.28;;;18.20;57.70;;;;;;4989852;28;20033;-91
2023/06/10 04:49:11;;;;;;;5.68;3.90;;;18.20;57.70;;;;;;4990950;28;20053;-93
2023/06/10 04:51:37;;;;;;;6.07;4.00;;;18.30;57.70;;;;;;4992314;28;20022;-91
2023/06/10 04:54:03;;;;;;;4.65;3.42;;;18.40;57.80;;;;;;4989733;28;20029;-91
2023/06/10 04:56:30;;;;;;;9.40;3.60;;;18.50;57.80;;;;;;4993398;28;20027;-91
2023/06/10 04:58:57;;;;;;;3.97;3.58;;;18.60;57.80;;;;;;4982369;28;20454;-91
2023/06/10 05:01:23;;;;;;;5.22;4.10;;;18.70;57.90;;;;;;4996596;28;20052;-92
2023/06/10 05:03:48;;;;;;;5.22;4.15;;;18.80;58.40;;;;;;5001980;28;20026;-91
2023/06/10 05:06:14;;;;;;;7.93;3.95;;;19.00;57.90;;;;;;4993858;28;20030;-91
2023/06/10 05:08:40;;;;;;;7.47;3.95;;;19.10;57.80;;;;;;4984946;28;20030;-90
2023/06/10 05:11:06;;;;;;;5.13;3.67;;;19.30;57.80;;;;;;4986903;28;20022;-91
2023/06/10 05:13:32;;;;;;;4.78;3.60;;;19.40;57.70;;;;;;5003689;28;20533;-92
2023/06/10 05:15:58;;;;;;;6.32;3.80;;;19.60;57.70;;;;;;5001380;28;20056;-91
2023/06/10 05:18:24;;;;;;;6.97;3.58;;;19.70;57.50;;;;;;4992699;28;20042;-90
2023/06/10 05:20:50;;;;;;;6.35;3.60;;;19.80;57.40;;;;;;5000107;28;20026;-92
2023/06/10 05:23:16;;;;;;;6.40;3.90;;;20.00;57.30;;;;;;4994421;28;20093;-91
2023/06/10 05:25:42;;;;;;;6.60;3.78;;;20.10;57.00;;;;;;4987637;28;20065;-92
2023/06/10 05:28:09;;;;;;;3.75;3.13;;;20.30;56.90;;;;;;4992912;28;20034;-93
2023/06/10 05:30:36;;;;;;;7.30;3.67;;;20.40;56.70;;;;;;4996114;28;20030;-91
2023/06/10 05:33:03;;;;;;;5.38;3.65;;;20.50;57.20;;;;;;4986188;28;20393;-91
2023/06/10 05:35:28;;;;;;;5.25;3.17;;;20.70;56.50;;;;;;4995324;28;20050;-91
2023/06/10 05:37:54;;;;;;;4.88;4.05;;;20.80;56.30;;;;;;4998247;28;20438;-91
2023/06/10 05:40:20;;;;;;;7.10;3.70;;;21.00;56.10;;;;;;4992482;28;20149;-91
2023/06/10 05:42:46;;;;;;;8.13;3.78;;;21.10;55.80;;;;;;4995015;28;20028;-91
2023/06/10 05:45:12;;;;;;;5.72;4.03;;;21.20;55.60;;;;;;4995196;28;20018;-91
2023/06/10 05:47:37;;;;;;;4.65;3.53;;;21.30;55.50;;;;;;5000711;28;20037;-91
2023/06/10 05:50:07;;;;;;;4.22;3.35;;;21.40;55.30;;;;;;4992318;28;20026;-91
2023/06/10 05:52:34;;;;;;;4.93;3.67;;;21.50;55.20;;;;;;5001659;28;20033;-91
2023/06/10 05:54:59;;;;;;;4.32;3.10;;;21.70;55.00;;;;;;5004651;28;20032;-92
2023/06/10 05:57:25;;;;;;;3.40;3.05;;;21.80;55.00;;;;;;4983199;28;20034;-91
2023/06/10 05:59:51;;;;;;;6.20;3.50;;;21.90;54.90;;;;;;4983761;28;20495;-91
2023/06/10 06:02:17;;;;;;;5.57;3.88;;;22.10;54.80;;;;;;4996433;28;20108;-92
2023/06/10 06:04:43;;;;;;;4.07;3.67;;;22.20;55.00;;;;;;4996038;28;20052;-91
2023/06/10 06:07:09;;;;;;;4.40;4.00;;;22.30;54.90;;;;;;4993243;28;20053;-91
2023/06/10 06:09:35;;;;;;;4.07;3.35;;;22.40;54.90;;;;;;4974768;28;20072;-91
2023/06/10 06:12:01;;;;;;;6.07;3.83;;;22.50;54.80;;;;;;4987937;28;20064;-91
2023/06/10 06:14:26;;;;;;;4.40;3.80;;;22.40;54.60;;;;;;4987199;28;20172;-91
2023/06/10 06:16:52;;;;;;;5.63;4.00;;;22.70;54.60;;;;;;4988498;28;20125;-91
2023/06/10 06:19:18;;;;;;;4.25;3.85;;;22.80;54.40;;;;;;4976718;28;20519;-92
2023/06/10 06:21:44;;;;;;;5.05;3.33;;;22.80;54.00;;;;;;4987845;28;20029;-91
2023/06/10 06:24:10;;;;;;;8.02;3.47;;;22.90;53.90;;;;;;4984536;28;20026;-92
2023/06/10 06:26:35;;;;;;;4.30;3.75;;;23.00;54.40;;;;;;4986010;28;20133;-90
2023/06/10 06:29:01;;;;;;;4.57;3.60;;;23.10;54.30;;;;;;4993758;28;20057;-90
2023/06/10 06:31:27;;;;;;;5.20;3.97;;;23.20;54.20;;;;;;4985285;28;20034;-90
2023/06/10 06:33:52;;;;;;;4.07;3.67;;;23.20;54.00;;;;;;4989439;28;20462;-89
2023/06/10 06:36:18;;;;;;;4.57;3.88;;;23.30;54.10;;;;;;4984427;28;20137;-95
2023/06/10 06:38:44;;;;;;;4.40;3.92;;;23.40;54.10;;;;;;4985987;28;20042;-92
2023/06/10 06:41:09;;;;;;;7.90;4.28;;;23.40;54.00;;;;;;4986044;28;20072;-89
2023/06/10 06:43:35;;;;;;;4.68;3.80;;;23.50;53.50;;;;;;5002729;28;20021;-90
2023/06/10 06:46:01;;;;;;;5.55;4.07;;;23.60;53.70;;;;;;4979761;28;20026;-90
2023/06/10 06:48:26;;;;;;;7.35;3.75;;;23.60;53.80;;;;;;4997440;28;20025;-91
2023/06/10 06:50:58;;;;;;;6.00;3.80;;;23.70;53.80;;;;;;4990334;28;20038;-90
2023/06/10 06:53:24;;;;;;;4.50;3.95;;;23.80;53.70;;;;;;4995240;28;20032;-91
2023/06/10 06:55:50;;;;;;;4.90;3.88;;;23.80;53.70;;;;;;5013550;28;20116;-91
2023/06/10 06:58:16;;;;;;;4.45;3.83;;;23.90;53.90;;;;;;4995333;28;20027;-88
2023/06/10 07:00:42;;;;;;;6.22;3.97;;;23.90;53.70;;;;;;4998501;28;20056;-91
2023/06/10 07:03:08;;;;;;;3.60;3.30;;;24.00;53.50;;;;;;4998218;28;20076;-90
2023/06/10 07:05:33;;;;;;;14.88;3.72;;;24.10;53.50;;;;;;4986656;28;20688;-91
2023/06/10 07:07:59;;;;;;;3.55;3.22;;;24.10;53.50;;;;;;5000495;28;20063;-90
2023/06/10 07:10:26;;;;;;;4.50;4.03;;;24.20;53.10;;;;;;4980914;28;20064;-91
2023/06/10 07:12:52;;;;;;;4.85;3.97;;;24.20;53.20;;;;;;4996428;28;20040;-90
2023/06/10 07:15:21;;;;;;;3.80;3.40;;;24.30;52.90;;;;;;4998006;28;20026;-89
2023/06/10 07:17:47;;;;;;;5.70;3.95;;;24.40;53.00;;;;;;4990026;28;20084;-90
2023/06/10 07:20:14;;;;;;;4.13;3.72;;;24.40;53.20;;;;;;5015368;28;20034;-94
2023/06/10 07:22:41;;;;;;;4.95;3.40;;;24.50;53.00;;;;;;5005813;28;20078;-91
2023/06/10 07:25:07;;;;;;;4.07;3.60;;;24.50;52.80;;;;;;4995010;28;20027;-90
2023/06/10 07:27:33;;;;;;;3.55;3.25;;;24.60;52.30;;;;;;5001262;28;20025;-91
2023/06/10 07:30:00;;;;;;;4.70;3.70;;;24.70;51.80;;;;;;4988878;28;20121;-90
2023/06/10 07:32:26;;;;;;;5.22;3.83;;;24.70;52.10;;;;;;4991316;28;20057;-91
2023/06/10 07:34:52;;;;;;;3.75;3.20;;;24.70;51.70;;;;;;4990956;28;20036;-91
2023/06/10 07:37:19;;;;;;;44.03;5.68;;;24.80;51.60;;;;;;4998790;28;20046;-89
2023/06/10 07:39:45;;;;;;;10.15;3.70;;;24.90;51.50;;;;;;4989932;28;20088;-89
2023/06/10 07:42:11;;;;;;;3.78;3.00;;;24.90;51.50;;;;;;4991866;28;20030;-89
2023/06/10 07:44:36;;;;;;;4.45;3.30;;;25.00;51.70;;;;;;4989207;28;20030;-89
2023/06/10 07:47:02;;;;;;;3.83;3.22;;;25.00;51.70;;;;;;4996181;28;20039;-96
2023/06/10 07:49:28;;;;;;;3.92;3.25;;;25.10;51.30;;;;;;4997440;28;20113;-92
2023/06/10 07:51:55;;;;;;;5.07;2.88;;;25.10;50.70;;;;;;4989166;28;20108;-89
2023/06/10 07:54:21;;;;;;;3.67;3.10;;;25.30;50.80;;;;;;5000140;28;20222;-88
2023/06/10 07:56:47;;;;;;;5.10;3.58;;;25.40;50.70;;;;;;5006081;28;20473;-89
2023/06/10 07:59:14;;;;;;;3.40;3.10;;;25.40;50.20;;;;;;5016635;28;20041;-90
2023/06/10 08:01:40;;;;;;;3.75;3.20;;;25.50;50.20;;;;;;4996382;28;20069;-89
2023/06/10 08:04:06;;;;;;;4.10;2.92;;;25.60;49.50;;;;;;5000612;28;20037;-89
2023/06/10 08:06:32;;;;;;;4.88;3.60;;;25.70;49.70;;;;;;4990420;28;20090;-89
2023/06/10 08:08:58;;;;;;;4.90;3.47;;;25.70;50.20;;;;;;5000905;28;20021;-89
2023/06/10 08:11:23;;;;;;;13.77;3.75;;;25.80;50.10;;;;;;5002608;28;20057;-89
2023/06/10 08:13:49;;;;;;;3.67;3.15;;;25.90;49.50;;;;;;4989015;28;20420;-89
2023/06/10 08:16:16;;;;;;;4.13;3.00;;;25.90;49.60;;;;;;5005142;28;20174;-87
2023/06/10 08:18:42;;;;;;;3.55;3.00;;;26.10;50.10;;;;;;4995211;28;20034;-91
2023/06/10 08:21:07;;;;;;;4.07;3.08;;;26.10;49.50;;;;;;4984239;28;20029;-89
2023/06/10 08:23:33;;;;;;;3.47;3.15;;;26.20;49.30;;;;;;4983854;28;20022;-89
2023/06/10 08:25:59;;;;;;;4.22;3.20;;;26.40;48.50;;;;;;4989288;28;21060;-88
2023/06/10 08:28:25;;;;;;;5.03;3.30;;;26.40;48.50;;;;;;4989481;28;20035;-88
2023/06/10 08:30:50;;;;;;;3.92;2.83;;;26.50;48.80;;;;;;4994209;28;20030;-88
2023/06/10 08:33:16;;;;;;;4.95;3.17;;;26.60;48.50;;;;;;4993246;28;20029;-89
2023/06/10 08:35:42;;;;;;;3.70;2.85;;;26.70;48.50;;;;;;4991447;28;20054;-90
2023/06/10 08:38:07;;;;;;;3.92;3.30;;;26.80;48.60;;;;;;5002608;28;20044;-91
2023/06/10 08:40:33;;;;;;;3.67;3.00;;;26.90;48.40;;;;;;4996599;28;20033;-91
2023/06/10 08:43:06;;;;;;;7.88;2.80;;;26.90;48.40;;;;;;4980190;28;20053;-90
2023/06/10 08:45:35;;;;;;;3.30;3.00;;;27.10;47.80;;;;;;4985297;28;20121;-89
2023/06/10 08:48:06;;;;;;;3.97;2.90;;;27.20;47.10;;;;;;5016800;28;20056;-89
2023/06/10 08:50:37;;;;;;;3.63;3.08;;;27.30;46.80;;;;;;4990088;28;20025;-90
2023/06/10 08:53:05;;;;;;;3.53;3.13;;;27.40;46.70;;;;;;4984665;28;20030;-89
2023/06/10 08:55:34;;;;;;;4.30;2.80;;;27.60;47.00;;;;;;4994938;28;20493;-91
2023/06/10 08:58:01;;;;;;;3.75;2.80;;;27.70;46.70;;;;;;5001728;28;20034;-89
2023/06/10 09:00:28;;;;;;;3.72;2.97;;;27.90;47.10;;;;;;4990780;28;20031;-88
2023/06/10 09:02:55;;;;;;;3.05;2.70;;;28.00;47.10;;;;;;4995544;28;20040;-89
2023/06/10 09:05:21;;;;;;;3.65;2.55;;;28.10;46.90;;;;;;4995579;28;20026;-90
2023/06/10 09:07:48;;;;;;;4.10;2.92;;;28.30;45.90;;;;;;4985941;28;20413;-89
2023/06/10 09:10:14;;;;;;;3.97;3.15;;;28.40;45.60;;;;;;4991259;28;20026;-90
2023/06/10 09:12:40;;;;;;;3.33;3.00;;;28.40;44.80;;;;;;4988922;28;20030;-90
2023/06/10 09:15:07;;;;;;;3.70;2.58;;;28.30;44.50;;;;;;4999872;28;20032;-89
2023/06/10 09:17:33;;;;;;;2.72;2.53;;;28.20;44.60;;;;;;4990292;28;20478;-92
2023/06/10 09:20:02;;;;;;;3.17;2.80;;;28.10;44.20;;;;;;4991947;28;20029;-89
2023/06/10 09:22:32;;;;;;;5.50;3.00;;;28.10;45.30;;;;;;4993886;28;20453;-91
2023/06/10 09:25:08;;;;;;;3.65;2.85;;;28.10;45.60;;;;;;4993833;28;20026;-90
2023/06/10 09:27:56;;;;;;;3.65;2.78;;;28.10;44.50;;;;;;4983712;28;20034;-89
2023/06/10 09:30:29;;;;;;;3.38;2.80;;;28.10;44.10;;;;;;4987335;28;20022;-89
2023/06/10 09:32:56;;;;;;;2.83;2.63;;;28.00;44.30;;;;;;4988813;28;20037;-90
2023/06/10 09:35:26;;;;;;;4.30;3.13;;;27.90;44.30;;;;;;4993762;28;20068;-89
2023/06/10 09:37:59;;;;;;;5.10;3.03;;;27.80;43.80;;;;;;4988344;28;20154;-90
2023/06/10 09:40:26;;;;;;;4.28;3.33;;;27.70;44.60;;;;;;4996196;28;22653;-90
2023/06/10 09:43:00;;;;;;;3.42;2.90;;;27.60;44.40;;;;;;4995771;28;20038;-89
2023/06/10 09:45:32;;;;;;;6.40;2.90;;;27.60;44.30;;;;;;5003520;28;20029;-89
2023/06/10 09:47:58;;;;;;;3.38;2.95;;;27.60;44.30;;;;;;4992145;28;20477;-89
2023/06/10 09:50:24;;;;;;;5.53;2.80;;;27.60;44.50;;;;;;5001760;28;20112;-89
2023/06/10 09:52:51;;;;;;;3.55;3.00;;;27.60;44.50;;;;;;4995577;28;20053;-89
2023/06/10 09:55:17;;;;;;;5.05;3.15;;;27.60;44.40;;;;;;4984028;28;20053;-90
2023/06/10 09:57:47;;;;;;;5.30;2.70;;;27.60;44.10;;;;;;4986465;28;20057;-89
2023/06/10 10:00:15;;;;;;;6.60;2.78;;;27.50;44.20;;;;;;4994884;28;20064;-92
2023/06/10 10:02:49;;;;;;;5.28;2.60;;;27.50;45.70;;;;;;4984893;28;20030;-90
2023/06/10 10:05:17;;;;;;;5.00;3.10;;;27.60;44.30;;;;;;4981774;28;20489;-89
2023/06/10 10:07:44;;;;;;;3.70;2.75;;;27.70;44.10;;;;;;4988031;28;20037;-90
2023/06/10 10:10:10;;;;;;;8.27;3.22;;;27.80;43.70;;;;;;4988725;28;20053;-90
2023/06/10 10:12:40;;;;;;;2.97;2.67;;;28.00;44.20;;;;;;4994396;28;20149;-95
2023/06/10 10:15:08;;;;;;;4.13;2.72;;;28.10;43.30;;;;;;4993574;28;20470;-90
2023/06/10 10:18:05;;;;;;;2.78;2.42;;;28.20;43.40;;;;;;4987848;28;20631;-91
2023/06/10 10:20:34;;;;;;;3.10;2.47;;;28.30;42.40;;;;;;5014138;28;20038;-91
2023/06/10 10:23:03;;;;;;;2.75;2.35;;;28.40;42.80;;;;;;4999315;28;20067;-91
2023/06/10 10:25:35;;;;;;;7.28;2.78;;;28.60;43.50;;;;;;4983718;28;20076;-90
2023/06/10 10:28:11;;;;;;;3.33;2.88;;;28.80;43.20;;;;;;4999782;28;20026;-91
2023/06/10 10:30:41;;;;;;;3.50;2.70;;;28.90;42.10;;;;;;4988341;28;20030;-91
2023/06/10 10:33:12;;;;;;;2.67;2.47;;;29.00;42.10;;;;;;4984251;28;20078;-90
2023/06/10 10:35:39;;;;;;;2.67;2.08;;;29.10;41.90;;;;;;4984093;28;20060;-90
2023/06/10 10:38:06;;;;;;;3.15;2.40;;;29.00;41.80;;;;;;4982414;28;20041;-90
2023/06/10 10:40:33;;;;;;;2.45;2.15;;;29.00;41.50;;;;;;4992100;28;20034;-89
2023/06/10 10:42:59;;;;;;;2.85;2.58;;;28.90;41.50;;;;;;4986633;28;20088;-90
2023/06/10 10:45:28;;;;;;;2.42;2.22;;;28.80;40.80;;;;;;4991492;28;20021;-89
2023/06/10 10:47:57;;;;;;;2.50;2.30;;;28.70;40.40;;;;;;4992847;28;20036;-90
2023/06/10 10:50:24;;;;;;;2.70;2.08;;;28.60;40.40;;;;;;4987408;28;20065;-90
2023/06/10 10:52:58;;;;;;;2.50;2.10;;;28.50;40.60;;;;;;4998493;28;20075;-90
2023/06/10 10:55:25;;;;;;;3.25;2.20;;;28.40;40.30;;;;;;4986137;28;20022;-90
2023/06/10 10:58:08;;;;;;;2.50;2.30;;;28.40;40.90;;;;;;4992231;28;20034;-90
2023/06/10 11:00:35;;;;;;;3.80;2.22;;;28.30;40.40;;;;;;4989529;28;20124;-90
2023/06/10 11:03:07;;;;;;;2.63;2.40;;;28.30;41.40;;;;;;4999873;28;20044;-91
2023/06/10 11:05:35;;;;;;;2.72;2.20;;;28.30;41.60;;;;;;4987289;28;20388;-91
2023/06/10 11:08:01;;;;;;;3.75;2.30;;;28.30;42.10;;;;;;4992436;28;20046;-91
2023/06/10 11:10:38;;;;;;;2.50;2.30;;;28.40;42.80;;;;;;4987659;28;20029;-90
2023/06/10 11:13:19;;;;;;;7.88;2.47;;;28.50;42.80;;;;;;4989927;28;20492;-90
2023/06/10 11:15:46;;;;;;;2.30;2.10;;;28.60;42.70;;;;;;4990877;28;20055;-91
2023/06/10 11:18:38;;;;;;;2.47;2.17;;;28.80;42.60;;;;;;4991111;28;20045;-90
2023/06/10 11:21:05;;;;;;;2.72;2.22;;;29.10;42.40;;;;;;4993955;28;20061;-91
2023/06/10 11:23:30;;;;;;;3.63;2.95;;;29.30;43.00;;;;;;4993146;28;20468;-91
2023/06/10 11:26:30;;;;;;;3.58;2.28;;;29.50;41.00;;;;;;4982941;28;20026;-92
2023/06/10 11:28:56;;;;;;;4.95;2.85;;;29.70;41.40;;;;;;4996150;28;20029;-91
2023/06/10 11:31:23;;;;;;;6.72;2.65;;;29.90;40.60;;;;;;4991824;28;20058;-92
2023/06/10 11:34:04;;;;;;;2.88;2.50;;;30.00;41.10;;;;;;4995572;28;20030;-91
2023/06/10 11:36:30;;;;;;;5.18;2.40;;;30.10;41.00;;;;;;4985121;28;20050;-91
2023/06/10 11:39:00;;;;;;;3.92;2.40;;;30.20;40.40;;;;;;4985594;28;20049;-89
2023/06/10 11:41:27;;;;;;;3.72;2.63;;;30.20;40.10;;;;;;4990591;28;20026;-89
2023/06/10 11:44:00;;;;;;;3.67;2.17;;;30.10;40.00;;;;;;4982231;28;20485;-90
2023/06/10 11:46:27;;;;;;;3.22;2.20;;;30.00;39.80;;;;;;4986900;28;20030;-90
2023/06/10 11:48:55;;;;;;;6.85;2.05;;;29.90;39.50;;;;;;4985886;28;20040;-89
2023/06/10 11:51:20;;;;;;;2.53;2.10;;;29.80;39.20;;;;;;4985456;28;20026;-90
2023/06/10 11:53:50;;;;;;;2.47;2.20;;;29.70;39.80;;;;;;4986162;28;20028;-91
2023/06/10 11:56:23;;;;;;;2.65;2.00;;;29.60;39.40;;;;;;4990496;28;20027;-91
2023/06/10 11:58:55;;;;;;;2.43;2.23;;;29.50;40.00;;;;;;4989500;28;20045;-90
2023/06/10 12:01:22;;;;;;;4.18;2.40;;;29.50;39.30;;;;;;4984626;28;20331;-90
2023/06/10 12:03:55;;;;;;;2.78;2.20;;;29.50;39.30;;;;;;4992724;28;20097;-90
2023/06/10 12:06:21;;;;;;;2.92;2.60;;;29.60;39.40;;;;;;4989316;28;20062;-92
2023/06/10 12:08:47;;;;;;;3.67;2.30;;;29.80;40.00;;;;;;5004004;28;20035;-91
2023/06/10 12:11:13;;;;;;;2.80;2.05;;;30.00;40.00;;;;;;4980239;28;20401;-90
2023/06/10 12:13:49;;;;;;;2.47;2.15;;;30.20;40.30;;;;;;4989236;28;20033;-91
2023/06/10 12:16:16;;;;;;;3.70;2.20;;;30.40;40.00;;;;;;4978091;28;20033;-91
2023/06/10 12:18:45;;;;;;;2.85;2.50;;;30.60;39.60;;;;;;4998496;28;20101;-92
2023/06/10 12:21:23;;;;;;;3.47;2.70;;;30.70;38.50;;;;;;4995429;28;20056;-91
2023/06/10 12:24:06;;;;;;;2.92;2.30;;;30.60;36.20;;;;;;4988795;28;20050;-90
2023/06/10 12:26:36;;;;;;;4.18;2.25;;;30.50;36.80;;;;;;4988462;28;20125;-90
2023/06/10 12:29:29;;;;;;;3.50;2.42;;;30.50;38.10;;;;;;5000520;28;20033;-91
2023/06/10 12:32:06;;;;;;;11.90;2.00;;;30.50;38.00;;;;;;4993426;28;20428;-93
2023/06/10 12:34:37;;;;;;;4.45;2.67;;;30.40;38.10;;;;;;5014087;28;20034;-91
2023/06/10 12:37:05;;;;;;;3.20;2.50;;;30.40;39.70;;;;;;4986140;28;20054;-92
2023/06/10 12:39:32;;;;;;;3.53;2.22;;;30.40;39.30;;;;;;5011888;28;20037;-90
2023/06/10 12:41:59;;;;;;;3.15;2.38;;;30.50;39.40;;;;;;4984435;28;20029;-91
2023/06/10 12:44:36;;;;;;;6.45;2.50;;;30.60;39.00;;;;;;4990024;28;20069;-89
2023/06/10 12:47:12;;;;;;;2.95;2.45;;;30.80;39.50;;;;;;4981479;28;20030;-90
2023/06/10 12:49:38;;;;;;;2.88;2.20;;;31.00;38.60;;;;;;4998640;28;20037;-91